Calypso — IYQT — position and weather

sailwx.info

Track history (hours):
 
Tides and Currents Weather Stations Pressure Air Temp Water Temp Dewpoint Dewpoint Depression Visibility Wind Speed Wind Dir Waves Ship Positions

Calypso

Last reported at 2017-Jun-24 10:42 UTC. Time now 2017-Jun-25 06:50 UTC.
Position N 38°13' E 015°15'.

Length 31 m; draft 4 m.

Type: High speed craft. MMSI: 247143200.

Date/timePositionNaut miles runAvg speedWind from/ knotsBaromVisibWave heightAir tempDewpointWater temp
2017-Jun-24 10:42N 38°13' E 015°15'0 0.0
2017-Jun-24 10:30N 38°13' E 015°15'0 0.0
2017-Jun-24 10:00N 38°13' E 015°15'0 0.0
2017-Jun-24 09:30N 38°13' E 015°15'0 0.0
2017-Jun-24 09:00N 38°13' E 015°15'0 0.0
2017-Jun-24 08:30N 38°13' E 015°15'0 0.0
2017-Jun-24 08:00N 38°13' E 015°15'0 0.0
2017-Jun-24 07:30N 38°13' E 015°15'0 0.2
2017-Jun-24 07:00N 38°13' E 015°14'919.0
2017-Jun-24 06:31N 38°20' E 015°07'1019.4
2017-Jun-24 06:00N 38°27' E 014°58'510.4
2017-Jun-24 05:29N 38°33' E 014°57'4 8.5
2017-Jun-24 05:00N 38°32' E 014°51'8 0.7
2017-Jun-23 18:39N 38°26' E 014°58'511.8
2017-Jun-23 18:15N 38°23' E 015°03'834.1
2017-Jun-23 18:01N 38°19' E 015°12'612.2
2017-Jun-23 17:30N 38°13' E 015°14'0 0.4
2017-Jun-23 17:00N 38°13' E 015°15'0 0.0
2017-Jun-23 16:30N 38°13' E 015°15'0 0.1
2017-Jun-23 16:00N 38°13' E 015°15'1021.0
2017-Jun-23 15:30N 38°23' E 015°17'15 8.4
2017-Jun-23 13:41N 38°24' E 015°36'633.5
2017-Jun-23 13:30N 38°18' E 015°41'918.3
2017-Jun-23 13:00N 38°11' E 015°34'0 0.4
2017-Jun-23 12:23N 38°11' E 015°34'411.5
2017-Jun-23 12:00N 38°15' E 015°37'1528.8
2017-Jun-23 11:29N 38°28' E 015°30'31 9.6
2017-Jun-23 08:15N 38°32' E 014°51'1 3.4
2017-Jun-23 08:00N 38°32' E 014°50'1018.8
2017-Jun-23 07:27N 38°36' E 015°03'613.2
2017-Jun-23 06:59N 38°41' E 015°07'2219.9
2017-Jun-23 05:53N 38°29' E 015°30'1333.6
2017-Jun-23 05:29N 38°18' E 015°40'917.8
2017-Jun-23 05:00N 38°11' E 015°34'0 0.0
2017-Jun-23 04:30N 38°11' E 015°34'0 0.0
2017-Jun-22 19:43N 38°11' E 015°34'0 0.3
2017-Jun-22 19:02N 38°11' E 015°34'0 5.1
2017-Jun-22 19:00N 38°11' E 015°34'816.4
2017-Jun-22 18:29N 38°18' E 015°40'3316.3
2017-Jun-22 16:27N 38°36' E 015°04'0 0.2
2017-Jun-22 15:21N 38°36' E 015°04'2215.4
2017-Jun-22 13:54N 38°28' E 015°31'1433.9
2017-Jun-22 13:30N 38°17' E 015°41'816.9
2017-Jun-22 13:00N 38°11' E 015°34'0 0.2
2017-Jun-22 12:30N 38°11' E 015°34'510.2
2017-Jun-22 12:01N 38°15' E 015°38'1630.6
2017-Jun-22 11:29N 38°29' E 015°28'2813.8
2017-Jun-22 09:29N 38°33' E 014°53'6 6.7
2017-Jun-22 08:36N 38°28' E 014°58'224.6
2017-Jun-22 08:30N 38°26' E 014°56'816.9
2017-Jun-22 08:00N 38°33' E 014°50'2814.5
2017-Jun-22 06:06N 38°35' E 015°25'1232.5
2017-Jun-22 05:43N 38°25' E 015°34'732.6
2017-Jun-22 05:30N 38°19' E 015°40'918.8
2017-Jun-22 05:00N 38°11' E 015°34'0 0.1
2017-Jun-22 04:30N 38°11' E 015°34'0 0.0
2017-Jun-21 20:51N 38°11' E 015°34'0 0.8
2017-Jun-21 20:30N 38°12' E 015°33'0 0.3
2017-Jun-21 20:00N 38°12' E 015°34'713.3
2017-Jun-21 19:27N 38°17' E 015°40'5 1.2
2017-Jun-21 15:07N 38°22' E 015°37'432.8
2017-Jun-21 14:59N 38°18' E 015°40'918.2
2017-Jun-21 14:30N 38°11' E 015°34'36 5.8
2017-Jun-21 08:23N 38°32' E 014°56'411.1
2017-Jun-21 08:00N 38°32' E 014°51'3315.1
2017-Jun-21 05:50N 38°26' E 015°32'15 8.7
2017-Jun-21 04:08N 38°11' E 015°34'0 0.0
2017-Jun-20 19:48N 38°11' E 015°34'0 0.5
2017-Jun-20 19:15N 38°12' E 015°33'0 1.6
2017-Jun-20 19:00N 38°12' E 015°34'1019.7
2017-Jun-20 18:30N 38°21' E 015°37'3126.0
2017-Jun-20 17:20N 38°46' E 015°14'615.0
2017-Jun-20 16:58N 38°43' E 015°08'18 3.7
2017-Jun-20 12:02N 38°26' E 014°59'411.1
2017-Jun-20 11:42N 38°24' E 015°02'632.6
2017-Jun-20 11:30N 38°20' E 015°09'816.6
2017-Jun-20 11:00N 38°13' E 015°14'0 0.0
2017-Jun-20 10:31N 38°13' E 015°14'0 0.7
2017-Jun-20 10:00N 38°13' E 015°15'0 0.0
2017-Jun-20 09:30N 38°13' E 015°15'0 0.2
2017-Jun-20 09:00N 38°13' E 015°15'0 0.6
2017-Jun-20 08:30N 38°13' E 015°14'0 0.2
2017-Jun-20 08:00N 38°13' E 015°15'1223.4
2017-Jun-20 07:30N 38°23' E 015°05'8 0.5
2017-Jun-19 15:41N 38°29' E 014°59'3 8.2
2017-Jun-19 15:18N 38°26' E 014°59'513.3
2017-Jun-19 14:54N 38°22' E 015°04'1213.6
2017-Jun-19 14:00N 38°13' E 015°14'4 1.1
2017-Jun-19 10:38N 38°17' E 015°16'326.4
2017-Jun-19 10:30N 38°13' E 015°16'1 2.0
2017-Jun-19 10:00N 38°13' E 015°15'0 0.1
2017-Jun-19 09:30N 38°13' E 015°15'0 0.7
2017-Jun-19 09:00N 38°13' E 015°14'3 5.8
2017-Jun-19 08:31N 38°16' E 015°16'18 4.1
2017-Jun-19 04:06N 38°27' E 014°58'8 0.6
2017-Jun-18 14:36N 38°22' E 015°06'1119.1
2017-Jun-18 14:00N 38°13' E 015°14'611.2
2017-Jun-18 13:30N 38°18' E 015°12'1 0.5
2017-Jun-18 10:42N 38°20' E 015°11'632.1
2017-Jun-18 10:30N 38°15' E 015°17'3 5.9
2017-Jun-18 10:00N 38°13' E 015°15'0 0.2
2017-Jun-18 09:30N 38°13' E 015°15'0 0.6
2017-Jun-18 09:00N 38°13' E 015°15'0 0.8
2017-Jun-18 08:31N 38°13' E 015°15'0 0.0
2017-Jun-17 13:49N 38°13' E 015°14'6 2.0
2017-Jun-17 10:43N 38°19' E 015°11'630.4
2017-Jun-17 10:30N 38°14' E 015°17'2 4.6
2017-Jun-17 10:00N 38°13' E 015°14'0 0.7
2017-Jun-17 09:30N 38°13' E 015°15'0 0.7
2017-Jun-17 09:00N 38°13' E 015°14'2 4.0
2017-Jun-17 08:30N 38°14' E 015°17'20 1.2
2017-Jun-16 15:58N 38°28' E 014°58'4 9.2
2017-Jun-16 15:30N 38°32' E 014°56'814.7
2017-Jun-16 14:59N 38°25' E 014°58'1124.4
2017-Jun-16 14:30N 38°20' E 015°11'2 2.3
2017-Jun-16 13:30N 38°18' E 015°13'1423.9
2017-Jun-16 12:56N 38°25' E 014°58'3 6.8
2017-Jun-16 12:30N 38°27' E 014°55'6 9.7
2017-Jun-16 11:51N 38°33' E 014°53'612.7
2017-Jun-16 11:23N 38°28' E 014°58'613.4
2017-Jun-16 10:58N 38°24' E 015°02'1431.0
2017-Jun-16 10:30N 38°15' E 015°16'3 5.3
2017-Jun-16 10:00N 38°13' E 015°14'0 0.0
2017-Jun-16 09:30N 38°13' E 015°14'0 0.5
2017-Jun-16 09:01N 38°13' E 015°15'0 0.2
2017-Jun-16 08:30N 38°13' E 015°15'0 0.0
2017-Jun-16 08:00N 38°13' E 015°15'5 9.2
2017-Jun-16 07:30N 38°17' E 015°16'1626.4
2017-Jun-16 06:54N 38°25' E 014°58'815.9
2017-Jun-16 06:23N 38°32' E 015°02'717.5
2017-Jun-16 05:59N 38°39' E 015°05'12 9.7
2017-Jun-16 04:42N 38°30' E 015°16'732.4
2017-Jun-16 04:30N 38°24' E 015°18'1121.8
2017-Jun-16 04:00N 38°13' E 015°14'0 0.0
2017-Jun-16 03:30N 38°13' E 015°14'0 0.0
2017-Jun-15 18:24N 38°13' E 015°14'2 3.8
2017-Jun-15 18:01N 38°14' E 015°16'2 3.0
2017-Jun-15 17:30N 38°13' E 015°14'0 0.0
2017-Jun-15 17:00N 38°13' E 015°14'0 0.0
2017-Jun-15 16:30N 38°13' E 015°14'0 0.0
2017-Jun-15 16:00N 38°13' E 015°14'0 0.0
2017-Jun-15 15:30N 38°13' E 015°14'0 0.7
2017-Jun-15 15:01N 38°13' E 015°15'0 0.0
2017-Jun-15 14:01N 38°13' E 015°15'0 0.0
2017-Jun-15 13:31N 38°13' E 015°15'0 0.0
2017-Jun-15 13:01N 38°13' E 015°15'0 0.0
2017-Jun-15 12:31N 38°13' E 015°15'0 0.0
2017-Jun-15 12:01N 38°13' E 015°15'0 0.0
2017-Jun-15 11:31N 38°13' E 015°15'0 0.0
2017-Jun-15 11:01N 38°13' E 015°15'3 5.6
2017-Jun-15 10:30N 38°15' E 015°16'714.0
2017-Jun-15 10:01N 38°21' E 015°10'714.3
2017-Jun-15 09:30N 38°25' E 015°03'5 9.4
2017-Jun-15 08:59N 38°28' E 014°58'16 5.3
2017-Jun-15 05:58N 38°42' E 015°07'6 8.7
2017-Jun-15 05:16N 38°44' E 015°15'1021.5
2017-Jun-15 04:47N 38°34' E 015°16'1034.5
2017-Jun-15 04:30N 38°24' E 015°17'1122.6
2017-Jun-15 04:00N 38°13' E 015°14'0 0.0
2017-Jun-15 03:30N 38°13' E 015°14'0 0.0
2017-Jun-14 17:11N 38°13' E 015°14'0 1.4
2017-Jun-14 17:01N 38°13' E 015°15'1326.1
2017-Jun-14 16:30N 38°23' E 015°04'711.2
2017-Jun-14 15:54N 38°28' E 014°59'614.2
2017-Jun-14 15:28N 38°32' E 014°53'1419.3
2017-Jun-14 14:43N 38°33' E 014°34'9 7.3
2017-Jun-14 13:30N 38°33' E 014°46'610.6
2017-Jun-14 12:56N 38°33' E 014°54'612.2
2017-Jun-14 12:25N 38°28' E 014°58'512.9
2017-Jun-14 12:00N 38°23' E 015°02'1530.0
2017-Jun-14 11:31N 38°13' E 015°16'1 1.8
2017-Jun-14 11:00N 38°13' E 015°14'  
Track history (hours):
 
Tides and Currents Weather Stations Pressure Air Temp Water Temp Dewpoint Dewpoint Depression Visibility Wind Speed Wind Dir Waves Ship Positions

Calypso

Last reported at 2017-Jun-24 10:42 UTC. Time now 2017-Jun-25 06:50 UTC.
Position N 38°13' E 015°15'.

Length 31 m; draft 4 m.

Type: High speed craft. MMSI: 247143200.

Date/timePositionNaut miles runAvg speedWind from/ knotsBaromVisibWave heightAir tempDewpointWater temp
2017-Jun-24 10:42N 38°13' E 015°15'0 0.0
2017-Jun-24 10:30N 38°13' E 015°15'0 0.0
2017-Jun-24 10:00N 38°13' E 015°15'0 0.0
2017-Jun-24 09:30N 38°13' E 015°15'0 0.0
2017-Jun-24 09:00N 38°13' E 015°15'0 0.0
2017-Jun-24 08:30N 38°13' E 015°15'0 0.0
2017-Jun-24 08:00N 38°13' E 015°15'0 0.0
2017-Jun-24 07:30N 38°13' E 015°15'0 0.2
2017-Jun-24 07:00N 38°13' E 015°14'919.0
2017-Jun-24 06:31N 38°20' E 015°07'1019.4
2017-Jun-24 06:00N 38°27' E 014°58'510.4
2017-Jun-24 05:29N 38°33' E 014°57'4 8.5
2017-Jun-24 05:00N 38°32' E 014°51'8 0.7
2017-Jun-23 18:39N 38°26' E 014°58'511.8
2017-Jun-23 18:15N 38°23' E 015°03'834.1
2017-Jun-23 18:01N 38°19' E 015°12'612.2
2017-Jun-23 17:30N 38°13' E 015°14'0 0.4
2017-Jun-23 17:00N 38°13' E 015°15'0 0.0
2017-Jun-23 16:30N 38°13' E 015°15'0 0.1
2017-Jun-23 16:00N 38°13' E 015°15'1021.0
2017-Jun-23 15:30N 38°23' E 015°17'15 8.4
2017-Jun-23 13:41N 38°24' E 015°36'633.5
2017-Jun-23 13:30N 38°18' E 015°41'918.3
2017-Jun-23 13:00N 38°11' E 015°34'0 0.4
2017-Jun-23 12:23N 38°11' E 015°34'411.5
2017-Jun-23 12:00N 38°15' E 015°37'1528.8
2017-Jun-23 11:29N 38°28' E 015°30'31 9.6
2017-Jun-23 08:15N 38°32' E 014°51'1 3.4
2017-Jun-23 08:00N 38°32' E 014°50'1018.8
2017-Jun-23 07:27N 38°36' E 015°03'613.2
2017-Jun-23 06:59N 38°41' E 015°07'2219.9
2017-Jun-23 05:53N 38°29' E 015°30'1333.6
2017-Jun-23 05:29N 38°18' E 015°40'917.8
2017-Jun-23 05:00N 38°11' E 015°34'0 0.0
2017-Jun-23 04:30N 38°11' E 015°34'0 0.0
2017-Jun-22 19:43N 38°11' E 015°34'0 0.3
2017-Jun-22 19:02N 38°11' E 015°34'0 5.1
2017-Jun-22 19:00N 38°11' E 015°34'816.4
2017-Jun-22 18:29N 38°18' E 015°40'3316.3
2017-Jun-22 16:27N 38°36' E 015°04'0 0.2
2017-Jun-22 15:21N 38°36' E 015°04'2215.4
2017-Jun-22 13:54N 38°28' E 015°31'1433.9
2017-Jun-22 13:30N 38°17' E 015°41'816.9
2017-Jun-22 13:00N 38°11' E 015°34'0 0.2
2017-Jun-22 12:30N 38°11' E 015°34'510.2
2017-Jun-22 12:01N 38°15' E 015°38'1630.6
2017-Jun-22 11:29N 38°29' E 015°28'2813.8
2017-Jun-22 09:29N 38°33' E 014°53'6 6.7
2017-Jun-22 08:36N 38°28' E 014°58'224.6
2017-Jun-22 08:30N 38°26' E 014°56'816.9
2017-Jun-22 08:00N 38°33' E 014°50'2814.5
2017-Jun-22 06:06N 38°35' E 015°25'1232.5
2017-Jun-22 05:43N 38°25' E 015°34'732.6
2017-Jun-22 05:30N 38°19' E 015°40'918.8
2017-Jun-22 05:00N 38°11' E 015°34'0 0.1
2017-Jun-22 04:30N 38°11' E 015°34'0 0.0
2017-Jun-21 20:51N 38°11' E 015°34'0 0.8
2017-Jun-21 20:30N 38°12' E 015°33'0 0.3
2017-Jun-21 20:00N 38°12' E 015°34'713.3
2017-Jun-21 19:27N 38°17' E 015°40'5 1.2
2017-Jun-21 15:07N 38°22' E 015°37'432.8
2017-Jun-21 14:59N 38°18' E 015°40'918.2
2017-Jun-21 14:30N 38°11' E 015°34'36 5.8
2017-Jun-21 08:23N 38°32' E 014°56'411.1
2017-Jun-21 08:00N 38°32' E 014°51'3315.1
2017-Jun-21 05:50N 38°26' E 015°32'15 8.7
2017-Jun-21 04:08N 38°11' E 015°34'0 0.0
2017-Jun-20 19:48N 38°11' E 015°34'0 0.5
2017-Jun-20 19:15N 38°12' E 015°33'0 1.6
2017-Jun-20 19:00N 38°12' E 015°34'1019.7
2017-Jun-20 18:30N 38°21' E 015°37'3126.0
2017-Jun-20 17:20N 38°46' E 015°14'615.0
2017-Jun-20 16:58N 38°43' E 015°08'18 3.7
2017-Jun-20 12:02N 38°26' E 014°59'411.1
2017-Jun-20 11:42N 38°24' E 015°02'632.6
2017-Jun-20 11:30N 38°20' E 015°09'816.6
2017-Jun-20 11:00N 38°13' E 015°14'0 0.0
2017-Jun-20 10:31N 38°13' E 015°14'0 0.7
2017-Jun-20 10:00N 38°13' E 015°15'0 0.0
2017-Jun-20 09:30N 38°13' E 015°15'0 0.2
2017-Jun-20 09:00N 38°13' E 015°15'0 0.6
2017-Jun-20 08:30N 38°13' E 015°14'0 0.2
2017-Jun-20 08:00N 38°13' E 015°15'1223.4
2017-Jun-20 07:30N 38°23' E 015°05'8 0.5
2017-Jun-19 15:41N 38°29' E 014°59'3 8.2
2017-Jun-19 15:18N 38°26' E 014°59'513.3
2017-Jun-19 14:54N 38°22' E 015°04'1213.6
2017-Jun-19 14:00N 38°13' E 015°14'4 1.1
2017-Jun-19 10:38N 38°17' E 015°16'326.4
2017-Jun-19 10:30N 38°13' E 015°16'1 2.0
2017-Jun-19 10:00N 38°13' E 015°15'0 0.1
2017-Jun-19 09:30N 38°13' E 015°15'0 0.7
2017-Jun-19 09:00N 38°13' E 015°14'3 5.8
2017-Jun-19 08:31N 38°16' E 015°16'18 4.1
2017-Jun-19 04:06N 38°27' E 014°58'8 0.6
2017-Jun-18 14:36N 38°22' E 015°06'1119.1
2017-Jun-18 14:00N 38°13' E 015°14'611.2
2017-Jun-18 13:30N 38°18' E 015°12'1 0.5
2017-Jun-18 10:42N 38°20' E 015°11'632.1
2017-Jun-18 10:30N 38°15' E 015°17'3 5.9
2017-Jun-18 10:00N 38°13' E 015°15'0 0.2
2017-Jun-18 09:30N 38°13' E 015°15'0 0.6
2017-Jun-18 09:00N 38°13' E 015°15'0 0.8
2017-Jun-18 08:31N 38°13' E 015°15'0 0.0
2017-Jun-17 13:49N 38°13' E 015°14'6 2.0
2017-Jun-17 10:43N 38°19' E 015°11'630.4
2017-Jun-17 10:30N 38°14' E 015°17'2 4.6
2017-Jun-17 10:00N 38°13' E 015°14'0 0.7
2017-Jun-17 09:30N 38°13' E 015°15'0 0.7
2017-Jun-17 09:00N 38°13' E 015°14'2 4.0
2017-Jun-17 08:30N 38°14' E 015°17'20 1.2
2017-Jun-16 15:58N 38°28' E 014°58'4 9.2
2017-Jun-16 15:30N 38°32' E 014°56'814.7
2017-Jun-16 14:59N 38°25' E 014°58'1124.4
2017-Jun-16 14:30N 38°20' E 015°11'2 2.3
2017-Jun-16 13:30N 38°18' E 015°13'1423.9
2017-Jun-16 12:56N 38°25' E 014°58'3 6.8
2017-Jun-16 12:30N 38°27' E 014°55'6 9.7
2017-Jun-16 11:51N 38°33' E 014°53'612.7
2017-Jun-16 11:23N 38°28' E 014°58'613.4
2017-Jun-16 10:58N 38°24' E 015°02'1431.0
2017-Jun-16 10:30N 38°15' E 015°16'3 5.3
2017-Jun-16 10:00N 38°13' E 015°14'0 0.0
2017-Jun-16 09:30N 38°13' E 015°14'0 0.5
2017-Jun-16 09:01N 38°13' E 015°15'0 0.2
2017-Jun-16 08:30N 38°13' E 015°15'0 0.0
2017-Jun-16 08:00N 38°13' E 015°15'5 9.2
2017-Jun-16 07:30N 38°17' E 015°16'1626.4
2017-Jun-16 06:54N 38°25' E 014°58'815.9
2017-Jun-16 06:23N 38°32' E 015°02'717.5
2017-Jun-16 05:59N 38°39' E 015°05'12 9.7
2017-Jun-16 04:42N 38°30' E 015°16'732.4
2017-Jun-16 04:30N 38°24' E 015°18'1121.8
2017-Jun-16 04:00N 38°13' E 015°14'0 0.0
2017-Jun-16 03:30N 38°13' E 015°14'0 0.0
2017-Jun-15 18:24N 38°13' E 015°14'2 3.8
2017-Jun-15 18:01N 38°14' E 015°16'2 3.0
2017-Jun-15 17:30N 38°13' E 015°14'0 0.0
2017-Jun-15 17:00N 38°13' E 015°14'0 0.0
2017-Jun-15 16:30N 38°13' E 015°14'0 0.0
2017-Jun-15 16:00N 38°13' E 015°14'0 0.0
2017-Jun-15 15:30N 38°13' E 015°14'0 0.7
2017-Jun-15 15:01N 38°13' E 015°15'0 0.0
2017-Jun-15 14:01N 38°13' E 015°15'0 0.0
2017-Jun-15 13:31N 38°13' E 015°15'0 0.0
2017-Jun-15 13:01N 38°13' E 015°15'0 0.0
2017-Jun-15 12:31N 38°13' E 015°15'0 0.0
2017-Jun-15 12:01N 38°13' E 015°15'0 0.0
2017-Jun-15 11:31N 38°13' E 015°15'0 0.0
2017-Jun-15 11:01N 38°13' E 015°15'3 5.6
2017-Jun-15 10:30N 38°15' E 015°16'714.0
2017-Jun-15 10:01N 38°21' E 015°10'714.3
2017-Jun-15 09:30N 38°25' E 015°03'5 9.4
2017-Jun-15 08:59N 38°28' E 014°58'16 5.3
2017-Jun-15 05:58N 38°42' E 015°07'6 8.7
2017-Jun-15 05:16N 38°44' E 015°15'1021.5
2017-Jun-15 04:47N 38°34' E 015°16'1034.5
2017-Jun-15 04:30N 38°24' E 015°17'1122.6
2017-Jun-15 04:00N 38°13' E 015°14'0 0.0
2017-Jun-15 03:30N 38°13' E 015°14'0 0.0
2017-Jun-14 17:11N 38°13' E 015°14'0 1.4
2017-Jun-14 17:01N 38°13' E 015°15'1326.1
2017-Jun-14 16:30N 38°23' E 015°04'711.2
2017-Jun-14 15:54N 38°28' E 014°59'614.2
2017-Jun-14 15:28N 38°32' E 014°53'1419.3
2017-Jun-14 14:43N 38°33' E 014°34'9 7.3
2017-Jun-14 13:30N 38°33' E 014°46'610.6
2017-Jun-14 12:56N 38°33' E 014°54'612.2
2017-Jun-14 12:25N 38°28' E 014°58'512.9
2017-Jun-14 12:00N 38°23' E 015°02'1530.0
2017-Jun-14 11:31N 38°13' E 015°16'1 1.8
2017-Jun-14 11:00N 38°13' E 015°14'  

Dump ship's entire track history